sensor_id;sensor_type;location;lat;lon;timestamp;P1;durP1;ratioP1;P2;durP2;ratioP2
50781;SDS011;36749;37.428;-121.972;2023-02-01T00:01:55;3.08;;;1.30;;
50781;SDS011;36749;37.428;-121.972;2023-02-01T00:04:21;3.30;;;1.40;;
50781;SDS011;36749;37.428;-121.972;2023-02-01T00:06:48;4.10;;;1.67;;
50781;SDS011;36749;37.428;-121.972;2023-02-01T00:09:14;7.00;;;1.52;;
50781;SDS011;36749;37.428;-121.972;2023-02-01T00:11:40;7.13;;;1.40;;
50781;SDS011;36749;37.428;-121.972;2023-02-01T00:14:06;2.28;;;1.30;;
50781;SDS011;36749;37.428;-121.972;2023-02-01T00:16:33;6.15;;;1.67;;
50781;SDS011;36749;37.428;-121.972;2023-02-01T00:19:01;3.28;;;1.45;;
50781;SDS011;36749;37.428;-121.972;2023-02-01T00:21:33;7.33;;;1.53;;
50781;SDS011;36749;37.428;-121.972;2023-02-01T00:23:59;5.78;;;1.35;;
50781;SDS011;36749;37.428;-121.972;2023-02-01T00:26:27;3.58;;;1.27;;
50781;SDS011;36749;37.428;-121.972;2023-02-01T00:29:00;4.40;;;1.45;;
50781;SDS011;36749;37.428;-121.972;2023-02-01T00:31:27;6.30;;;1.50;;
50781;SDS011;36749;37.428;-121.972;2023-02-01T00:33:54;2.22;;;1.17;;
50781;SDS011;36749;37.428;-121.972;2023-02-01T00:36:20;3.25;;;1.40;;
50781;SDS011;36749;37.428;-121.972;2023-02-01T00:38:46;3.65;;;1.20;;
50781;SDS011;36749;37.428;-121.972;2023-02-01T00:41:16;3.00;;;1.40;;
50781;SDS011;36749;37.428;-121.972;2023-02-01T00:43:44;3.88;;;1.30;;
50781;SDS011;36749;37.428;-121.972;2023-02-01T00:46:12;1.95;;;1.02;;
50781;SDS011;36749;37.428;-121.972;2023-02-01T00:48:40;4.90;;;1.33;;
50781;SDS011;36749;37.428;-121.972;2023-02-01T00:51:11;3.30;;;1.02;;
50781;SDS011;36749;37.428;-121.972;2023-02-01T00:53:38;24.52;;;2.83;;
50781;SDS011;36749;37.428;-121.972;2023-02-01T00:56:05;12.82;;;2.03;;
50781;SDS011;36749;37.428;-121.972;2023-02-01T00:58:32;3.67;;;1.25;;
50781;SDS011;36749;37.428;-121.972;2023-02-01T01:03:35;5.05;;;1.75;;
50781;SDS011;36749;37.428;-121.972;2023-02-01T01:06:07;9.02;;;1.40;;
50781;SDS011;36749;37.428;-121.972;2023-02-01T01:08:35;7.68;;;1.85;;
50781;SDS011;36749;37.428;-121.972;2023-02-01T01:11:05;3.80;;;1.35;;
50781;SDS011;36749;37.428;-121.972;2023-02-01T01:13:56;8.35;;;1.73;;
50781;SDS011;36749;37.428;-121.972;2023-02-01T01:16:24;5.45;;;1.23;;
50781;SDS011;36749;37.428;-121.972;2023-02-01T01:18:51;4.38;;;1.40;;
50781;SDS011;36749;37.428;-121.972;2023-02-01T01:21:18;4.70;;;1.30;;
50781;SDS011;36749;37.428;-121.972;2023-02-01T01:23:45;10.07;;;1.77;;
50781;SDS011;36749;37.428;-121.972;2023-02-01T01:26:13;15.55;;;1.92;;
50781;SDS011;36749;37.428;-121.972;2023-02-01T01:28:41;2.03;;;1.17;;
50781;SDS011;36749;37.428;-121.972;2023-02-01T01:31:08;1.67;;;1.00;;
50781;SDS011;36749;37.428;-121.972;2023-02-01T01:33:36;6.53;;;1.90;;
50781;SDS011;36749;37.428;-121.972;2023-02-01T01:36:06;9.20;;;1.80;;
50781;SDS011;36749;37.428;-121.972;2023-02-01T01:38:36;7.03;;;1.48;;
50781;SDS011;36749;37.428;-121.972;2023-02-01T01:41:03;6.63;;;1.67;;
50781;SDS011;36749;37.428;-121.972;2023-02-01T01:46:34;1.42;;;1.33;;
50781;SDS011;36749;37.428;-121.972;2023-02-01T01:49:06;2.67;;;1.00;;
50781;SDS011;36749;37.428;-121.972;2023-02-01T01:51:38;2.60;;;1.08;;
50781;SDS011;36749;37.428;-121.972;2023-02-01T01:54:18;2.92;;;1.40;;
50781;SDS011;36749;37.428;-121.972;2023-02-01T01:56:50;10.02;;;1.70;;
50781;SDS011;36749;37.428;-121.972;2023-02-01T01:59:22;7.95;;;1.48;;
50781;SDS011;36749;37.428;-121.972;2023-02-01T02:01:50;4.78;;;1.70;;
50781;SDS011;36749;37.428;-121.972;2023-02-01T02:04:17;3.78;;;1.27;;
50781;SDS011;36749;37.428;-121.972;2023-02-01T02:09:33;4.10;;;1.25;;
50781;SDS011;36749;37.428;-121.972;2023-02-01T02:11:59;4.57;;;1.70;;
50781;SDS011;36749;37.428;-121.972;2023-02-01T02:14:26;6.25;;;1.48;;
50781;SDS011;36749;37.428;-121.972;2023-02-01T02:22:27;2.38;;;1.27;;
50781;SDS011;36749;37.428;-121.972;2023-02-01T02:36:08;2.10;;;1.40;;
50781;SDS011;36749;37.428;-121.972;2023-02-01T02:38:52;5.60;;;1.20;;
50781;SDS011;36749;37.428;-121.972;2023-02-01T02:51:11;2.92;;;1.73;;
50781;SDS011;36749;37.428;-121.972;2023-02-01T02:54:03;1.80;;;1.50;;
50781;SDS011;36749;37.428;-121.972;2023-02-01T02:56:50;2.67;;;1.75;;
50781;SDS011;36749;37.428;-121.972;2023-02-01T02:59:37;2.45;;;1.83;;
50781;SDS011;36749;37.428;-121.972;2023-02-01T03:02:23;2.75;;;1.77;;
50781;SDS011;36749;37.428;-121.972;2023-02-01T03:05:10;2.83;;;2.10;;
50781;SDS011;36749;37.428;-121.972;2023-02-01T03:07:49;3.50;;;2.00;;
50781;SDS011;36749;37.428;-121.972;2023-02-01T03:10:21;4.95;;;1.92;;
50781;SDS011;36749;37.428;-121.972;2023-02-01T03:12:49;3.90;;;2.08;;
50781;SDS011;36749;37.428;-121.972;2023-02-01T03:15:27;2.05;;;1.85;;
50781;SDS011;36749;37.428;-121.972;2023-02-01T03:17:58;2.78;;;1.52;;
50781;SDS011;36749;37.428;-121.972;2023-02-01T03:20:27;4.88;;;2.10;;
50781;SDS011;36749;37.428;-121.972;2023-02-01T03:22:53;4.80;;;2.30;;
50781;SDS011;36749;37.428;-121.972;2023-02-01T03:25:25;5.05;;;2.42;;
50781;SDS011;36749;37.428;-121.972;2023-02-01T03:28:14;5.00;;;2.10;;
50781;SDS011;36749;37.428;-121.972;2023-02-01T03:30:42;3.15;;;2.05;;
50781;SDS011;36749;37.428;-121.972;2023-02-01T03:33:10;3.60;;;2.10;;
50781;SDS011;36749;37.428;-121.972;2023-02-01T03:44:08;3.45;;;1.70;;
50781;SDS011;36749;37.428;-121.972;2023-02-01T03:46:49;3.72;;;1.80;;
50781;SDS011;36749;37.428;-121.972;2023-02-01T03:49:31;2.28;;;1.70;;
50781;SDS011;36749;37.428;-121.972;2023-02-01T03:52:04;5.85;;;1.70;;
50781;SDS011;36749;37.428;-121.972;2023-02-01T03:54:32;7.28;;;2.45;;
50781;SDS011;36749;37.428;-121.972;2023-02-01T03:56:59;3.45;;;1.85;;
50781;SDS011;36749;37.428;-121.972;2023-02-01T03:59:38;3.78;;;1.77;;
50781;SDS011;36749;37.428;-121.972;2023-02-01T04:02:08;4.03;;;2.00;;
50781;SDS011;36749;37.428;-121.972;2023-02-01T04:04:34;6.72;;;2.10;;
50781;SDS011;36749;37.428;-121.972;2023-02-01T04:07:01;6.13;;;2.35;;
50781;SDS011;36749;37.428;-121.972;2023-02-01T04:09:27;7.05;;;2.45;;
50781;SDS011;36749;37.428;-121.972;2023-02-01T04:11:53;14.23;;;2.70;;
50781;SDS011;36749;37.428;-121.972;2023-02-01T04:14:19;14.38;;;3.63;;
50781;SDS011;36749;37.428;-121.972;2023-02-01T04:16:46;5.20;;;2.10;;
50781;SDS011;36749;37.428;-121.972;2023-02-01T04:19:18;7.53;;;2.63;;
50781;SDS011;36749;37.428;-121.972;2023-02-01T04:21:44;7.70;;;2.20;;
50781;SDS011;36749;37.428;-121.972;2023-02-01T04:24:10;8.55;;;2.33;;
50781;SDS011;36749;37.428;-121.972;2023-02-01T04:26:37;10.05;;;2.45;;
50781;SDS011;36749;37.428;-121.972;2023-02-01T04:29:03;7.00;;;2.97;;
50781;SDS011;36749;37.428;-121.972;2023-02-01T04:31:29;5.82;;;2.17;;
50781;SDS011;36749;37.428;-121.972;2023-02-01T04:33:55;7.90;;;2.60;;
50781;SDS011;36749;37.428;-121.972;2023-02-01T04:36:24;8.65;;;2.80;;
50781;SDS011;36749;37.428;-121.972;2023-02-01T04:38:51;9.75;;;2.75;;
50781;SDS011;36749;37.428;-121.972;2023-02-01T04:41:17;7.10;;;2.67;;
50781;SDS011;36749;37.428;-121.972;2023-02-01T04:43:48;9.55;;;2.72;;
50781;SDS011;36749;37.428;-121.972;2023-02-01T04:46:18;7.63;;;2.58;;
50781;SDS011;36749;37.428;-121.972;2023-02-01T04:48:45;7.00;;;2.80;;
50781;SDS011;36749;37.428;-121.972;2023-02-01T04:51:11;9.50;;;2.72;;
50781;SDS011;36749;37.428;-121.972;2023-02-01T04:53:38;8.57;;;3.00;;
50781;SDS011;36749;37.428;-121.972;2023-02-01T04:56:04;8.63;;;2.78;;
50781;SDS011;36749;37.428;-121.972;2023-02-01T04:58:31;6.20;;;2.72;;
50781;SDS011;36749;37.428;-121.972;2023-02-01T05:00:57;9.15;;;3.35;;
50781;SDS011;36749;37.428;-121.972;2023-02-01T05:03:29;10.02;;;3.90;;
50781;SDS011;36749;37.428;-121.972;2023-02-01T05:05:56;6.45;;;2.53;;
50781;SDS011;36749;37.428;-121.972;2023-02-01T05:08:22;8.15;;;3.42;;
50781;SDS011;36749;37.428;-121.972;2023-02-01T05:10:50;7.38;;;3.05;;
50781;SDS011;36749;37.428;-121.972;2023-02-01T05:13:16;10.52;;;2.97;;
50781;SDS011;36749;37.428;-121.972;2023-02-01T05:16:01;10.10;;;3.53;;
50781;SDS011;36749;37.428;-121.972;2023-02-01T05:18:27;9.77;;;2.85;;
50781;SDS011;36749;37.428;-121.972;2023-02-01T05:20:53;6.88;;;3.15;;
50781;SDS011;36749;37.428;-121.972;2023-02-01T05:23:19;11.07;;;3.42;;
50781;SDS011;36749;37.428;-121.972;2023-02-01T05:25:46;9.63;;;3.40;;
50781;SDS011;36749;37.428;-121.972;2023-02-01T05:28:12;8.40;;;3.20;;
50781;SDS011;36749;37.428;-121.972;2023-02-01T05:30:38;8.50;;;2.80;;
50781;SDS011;36749;37.428;-121.972;2023-02-01T05:33:04;8.38;;;3.67;;
50781;SDS011;36749;37.428;-121.972;2023-02-01T05:35:31;11.40;;;3.35;;
50781;SDS011;36749;37.428;-121.972;2023-02-01T05:37:57;6.97;;;3.70;;
50781;SDS011;36749;37.428;-121.972;2023-02-01T05:40:23;6.25;;;3.20;;
50781;SDS011;36749;37.428;-121.972;2023-02-01T05:42:49;9.30;;;4.05;;
50781;SDS011;36749;37.428;-121.972;2023-02-01T05:45:15;8.13;;;3.42;;
50781;SDS011;36749;37.428;-121.972;2023-02-01T05:47:41;8.07;;;4.13;;
50781;SDS011;36749;37.428;-121.972;2023-02-01T05:50:08;8.45;;;4.03;;
50781;SDS011;36749;37.428;-121.972;2023-02-01T05:52:34;9.00;;;3.88;;
50781;SDS011;36749;37.428;-121.972;2023-02-01T05:55:00;8.93;;;3.60;;
50781;SDS011;36749;37.428;-121.972;2023-02-01T05:57:27;10.55;;;4.03;;
50781;SDS011;36749;37.428;-121.972;2023-02-01T05:59:53;7.53;;;4.07;;
50781;SDS011;36749;37.428;-121.972;2023-02-01T06:02:19;9.68;;;4.05;;
50781;SDS011;36749;37.428;-121.972;2023-02-01T06:04:46;10.18;;;3.83;;
50781;SDS011;36749;37.428;-121.972;2023-02-01T06:07:13;11.43;;;5.00;;
50781;SDS011;36749;37.428;-121.972;2023-02-01T06:09:39;7.93;;;3.88;;
50781;SDS011;36749;37.428;-121.972;2023-02-01T06:12:05;10.23;;;4.75;;
50781;SDS011;36749;37.428;-121.972;2023-02-01T06:14:34;11.98;;;4.82;;
50781;SDS011;36749;37.428;-121.972;2023-02-01T06:17:02;10.00;;;4.15;;
50781;SDS011;36749;37.428;-121.972;2023-02-01T06:19:28;11.07;;;3.75;;
50781;SDS011;36749;37.428;-121.972;2023-02-01T06:21:55;10.05;;;5.00;;
50781;SDS011;36749;37.428;-121.972;2023-02-01T06:24:22;7.40;;;3.53;;
50781;SDS011;36749;37.428;-121.972;2023-02-01T06:26:48;10.80;;;4.07;;
50781;SDS011;36749;37.428;-121.972;2023-02-01T06:29:14;10.00;;;3.85;;
50781;SDS011;36749;37.428;-121.972;2023-02-01T06:31:42;10.38;;;3.58;;
50781;SDS011;36749;37.428;-121.972;2023-02-01T06:34:09;10.23;;;3.80;;
50781;SDS011;36749;37.428;-121.972;2023-02-01T06:36:35;11.02;;;3.95;;
50781;SDS011;36749;37.428;-121.972;2023-02-01T06:39:01;7.55;;;3.67;;
50781;SDS011;36749;37.428;-121.972;2023-02-01T06:41:27;7.40;;;3.75;;
50781;SDS011;36749;37.428;-121.972;2023-02-01T06:43:54;9.32;;;4.00;;
50781;SDS011;36749;37.428;-121.972;2023-02-01T06:46:20;8.95;;;3.60;;
50781;SDS011;36749;37.428;-121.972;2023-02-01T06:48:46;9.98;;;3.60;;
50781;SDS011;36749;37.428;-121.972;2023-02-01T06:51:47;8.30;;;3.08;;
50781;SDS011;36749;37.428;-121.972;2023-02-01T06:54:07;8.50;;;3.60;;
50781;SDS011;36749;37.428;-121.972;2023-02-01T06:56:34;7.07;;;3.50;;
50781;SDS011;36749;37.428;-121.972;2023-02-01T06:59:02;8.02;;;3.25;;
50781;SDS011;36749;37.428;-121.972;2023-02-01T07:01:29;8.48;;;3.83;;
50781;SDS011;36749;37.428;-121.972;2023-02-01T07:03:56;9.80;;;3.92;;
50781;SDS011;36749;37.428;-121.972;2023-02-01T07:06:22;10.10;;;3.88;;
50781;SDS011;36749;37.428;-121.972;2023-02-01T07:08:48;8.73;;;3.50;;
50781;SDS011;36749;37.428;-121.972;2023-02-01T07:11:15;9.13;;;4.15;;
50781;SDS011;36749;37.428;-121.972;2023-02-01T07:13:42;9.10;;;3.88;;
50781;SDS011;36749;37.428;-121.972;2023-02-01T07:16:10;8.77;;;3.83;;
50781;SDS011;36749;37.428;-121.972;2023-02-01T07:18:41;7.72;;;3.53;;
50781;SDS011;36749;37.428;-121.972;2023-02-01T07:21:07;11.63;;;3.63;;
50781;SDS011;36749;37.428;-121.972;2023-02-01T07:23:34;9.57;;;4.03;;
50781;SDS011;36749;37.428;-121.972;2023-02-01T07:26:02;10.82;;;3.50;;
50781;SDS011;36749;37.428;-121.972;2023-02-01T07:28:31;6.80;;;3.78;;
50781;SDS011;36749;37.428;-121.972;2023-02-01T07:31:17;9.35;;;3.90;;
50781;SDS011;36749;37.428;-121.972;2023-02-01T07:33:46;9.65;;;4.30;;
50781;SDS011;36749;37.428;-121.972;2023-02-01T07:36:18;12.18;;;4.25;;
50781;SDS011;36749;37.428;-121.972;2023-02-01T07:38:45;10.43;;;4.55;;
50781;SDS011;36749;37.428;-121.972;2023-02-01T07:41:14;8.18;;;4.55;;
50781;SDS011;36749;37.428;-121.972;2023-02-01T07:43:41;13.25;;;5.32;;
50781;SDS011;36749;37.428;-121.972;2023-02-01T07:46:07;10.27;;;4.30;;
50781;SDS011;36749;37.428;-121.972;2023-02-01T07:48:35;12.10;;;5.13;;
50781;SDS011;36749;37.428;-121.972;2023-02-01T07:53:38;14.38;;;4.90;;
50781;SDS011;36749;37.428;-121.972;2023-02-01T07:56:10;12.45;;;4.93;;
50781;SDS011;36749;37.428;-121.972;2023-02-01T07:58:47;10.43;;;4.82;;
50781;SDS011;36749;37.428;-121.972;2023-02-01T08:01:18;11.18;;;5.25;;
50781;SDS011;36749;37.428;-121.972;2023-02-01T08:03:47;11.93;;;5.07;;
50781;SDS011;36749;37.428;-121.972;2023-02-01T08:06:15;11.32;;;4.90;;
50781;SDS011;36749;37.428;-121.972;2023-02-01T08:08:41;11.23;;;4.18;;
50781;SDS011;36749;37.428;-121.972;2023-02-01T08:11:10;9.68;;;4.78;;
50781;SDS011;36749;37.428;-121.972;2023-02-01T08:13:36;9.60;;;4.38;;
50781;SDS011;36749;37.428;-121.972;2023-02-01T08:16:03;11.23;;;5.22;;
50781;SDS011;36749;37.428;-121.972;2023-02-01T08:18:31;10.15;;;4.97;;
50781;SDS011;36749;37.428;-121.972;2023-02-01T08:21:02;10.68;;;4.85;;
50781;SDS011;36749;37.428;-121.972;2023-02-01T08:23:35;10.25;;;4.30;;
50781;SDS011;36749;37.428;-121.972;2023-02-01T08:28:38;9.00;;;5.22;;
50781;SDS011;36749;37.428;-121.972;2023-02-01T08:31:09;9.00;;;4.00;;
50781;SDS011;36749;37.428;-121.972;2023-02-01T08:33:40;8.05;;;3.92;;
50781;SDS011;36749;37.428;-121.972;2023-02-01T08:36:07;11.43;;;5.00;;
50781;SDS011;36749;37.428;-121.972;2023-02-01T08:38:34;12.82;;;4.45;;
50781;SDS011;36749;37.428;-121.972;2023-02-01T08:41:05;8.77;;;4.85;;
50781;SDS011;36749;37.428;-121.972;2023-02-01T08:43:39;11.82;;;5.00;;
50781;SDS011;36749;37.428;-121.972;2023-02-01T08:46:05;9.88;;;4.65;;
50781;SDS011;36749;37.428;-121.972;2023-02-01T08:48:32;9.60;;;4.25;;
50781;SDS011;36749;37.428;-121.972;2023-02-01T08:51:03;11.55;;;4.65;;
50781;SDS011;36749;37.428;-121.972;2023-02-01T08:53:31;8.00;;;3.92;;
50781;SDS011;36749;37.428;-121.972;2023-02-01T08:55:57;9.00;;;4.05;;
50781;SDS011;36749;37.428;-121.972;2023-02-01T08:58:24;8.40;;;5.13;;
50781;SDS011;36749;37.428;-121.972;2023-02-01T09:00:50;9.55;;;4.90;;
50781;SDS011;36749;37.428;-121.972;2023-02-01T09:03:16;9.38;;;4.97;;
50781;SDS011;36749;37.428;-121.972;2023-02-01T09:05:43;8.35;;;4.47;;
50781;SDS011;36749;37.428;-121.972;2023-02-01T09:08:10;9.43;;;4.85;;
50781;SDS011;36749;37.428;-121.972;2023-02-01T09:10:40;12.82;;;5.55;;
50781;SDS011;36749;37.428;-121.972;2023-02-01T09:13:07;9.50;;;5.18;;
50781;SDS011;36749;37.428;-121.972;2023-02-01T09:15:34;8.15;;;4.35;;
50781;SDS011;36749;37.428;-121.972;2023-02-01T09:18:00;9.40;;;3.80;;
50781;SDS011;36749;37.428;-121.972;2023-02-01T09:20:26;6.30;;;3.75;;
50781;SDS011;36749;37.428;-121.972;2023-02-01T09:22:54;8.40;;;4.22;;
50781;SDS011;36749;37.428;-121.972;2023-02-01T09:25:20;7.80;;;3.97;;
50781;SDS011;36749;37.428;-121.972;2023-02-01T09:27:46;9.40;;;4.30;;
50781;SDS011;36749;37.428;-121.972;2023-02-01T09:30:13;8.82;;;4.10;;
50781;SDS011;36749;37.428;-121.972;2023-02-01T09:32:39;8.18;;;3.63;;
50781;SDS011;36749;37.428;-121.972;2023-02-01T09:35:05;7.75;;;3.83;;
50781;SDS011;36749;37.428;-121.972;2023-02-01T09:37:32;7.35;;;4.00;;
50781;SDS011;36749;37.428;-121.972;2023-02-01T09:39:58;8.85;;;3.72;;
50781;SDS011;36749;37.428;-121.972;2023-02-01T09:45:11;9.20;;;4.00;;
50781;SDS011;36749;37.428;-121.972;2023-02-01T09:47:49;8.18;;;3.95;;
50781;SDS011;36749;37.428;-121.972;2023-02-01T09:50:21;8.95;;;3.72;;
50781;SDS011;36749;37.428;-121.972;2023-02-01T09:53:01;5.53;;;3.25;;
50781;SDS011;36749;37.428;-121.972;2023-02-01T09:55:39;11.60;;;4.10;;
50781;SDS011;36749;37.428;-121.972;2023-02-01T09:58:16;7.63;;;3.92;;
50781;SDS011;36749;37.428;-121.972;2023-02-01T10:00:59;9.70;;;3.85;;
50781;SDS011;36749;37.428;-121.972;2023-02-01T10:03:27;8.55;;;4.05;;
50781;SDS011;36749;37.428;-121.972;2023-02-01T10:06:20;11.52;;;4.82;;
50781;SDS011;36749;37.428;-121.972;2023-02-01T10:14:57;18.80;;;6.20;;
50781;SDS011;36749;37.428;-121.972;2023-02-01T10:25:50;10.82;;;4.53;;
50781;SDS011;36749;37.428;-121.972;2023-02-01T10:28:20;12.93;;;5.32;;
50781;SDS011;36749;37.428;-121.972;2023-02-01T10:30:47;10.43;;;4.93;;
50781;SDS011;36749;37.428;-121.972;2023-02-01T10:35:44;11.02;;;4.60;;
50781;SDS011;36749;37.428;-121.972;2023-02-01T10:38:21;9.30;;;4.60;;
50781;SDS011;36749;37.428;-121.972;2023-02-01T10:40:51;6.90;;;3.88;;
50781;SDS011;36749;37.428;-121.972;2023-02-01T10:43:22;7.25;;;4.07;;
50781;SDS011;36749;37.428;-121.972;2023-02-01T10:45:49;9.77;;;3.90;;
50781;SDS011;36749;37.428;-121.972;2023-02-01T10:48:15;7.28;;;3.95;;
50781;SDS011;36749;37.428;-121.972;2023-02-01T10:56:26;9.05;;;4.57;;
50781;SDS011;36749;37.428;-121.972;2023-02-01T10:59:06;11.13;;;5.10;;
50781;SDS011;36749;37.428;-121.972;2023-02-01T11:01:42;9.13;;;4.50;;
50781;SDS011;36749;37.428;-121.972;2023-02-01T11:04:15;11.95;;;5.25;;
50781;SDS011;36749;37.428;-121.972;2023-02-01T11:06:49;8.95;;;4.70;;
50781;SDS011;36749;37.428;-121.972;2023-02-01T11:14:17;12.10;;;4.60;;
50781;SDS011;36749;37.428;-121.972;2023-02-01T11:16:52;10.68;;;4.00;;
50781;SDS011;36749;37.428;-121.972;2023-02-01T11:19:20;9.98;;;4.35;;
50781;SDS011;36749;37.428;-121.972;2023-02-01T11:21:53;9.70;;;4.60;;
50781;SDS011;36749;37.428;-121.972;2023-02-01T11:26:47;10.32;;;4.50;;
50781;SDS011;36749;37.428;-121.972;2023-02-01T11:29:15;8.88;;;4.00;;
50781;SDS011;36749;37.428;-121.972;2023-02-01T11:31:44;12.13;;;5.13;;
50781;SDS011;36749;37.428;-121.972;2023-02-01T11:34:16;9.35;;;4.68;;
50781;SDS011;36749;37.428;-121.972;2023-02-01T11:36:45;9.60;;;4.63;;
50781;SDS011;36749;37.428;-121.972;2023-02-01T11:41:42;12.48;;;4.68;;
50781;SDS011;36749;37.428;-121.972;2023-02-01T11:44:44;9.20;;;3.50;;
50781;SDS011;36749;37.428;-121.972;2023-02-01T11:47:25;7.32;;;3.97;;
50781;SDS011;36749;37.428;-121.972;2023-02-01T11:49:53;7.70;;;3.83;;
50781;SDS011;36749;37.428;-121.972;2023-02-01T11:52:30;8.27;;;4.13;;
50781;SDS011;36749;37.428;-121.972;2023-02-01T12:00:59;10.38;;;3.95;;
50781;SDS011;36749;37.428;-121.972;2023-02-01T12:12:33;10.23;;;3.72;;
50781;SDS011;36749;37.428;-121.972;2023-02-01T12:23:27;11.57;;;3.78;;
50781;SDS011;36749;37.428;-121.972;2023-02-01T12:32:02;9.85;;;3.83;;
50781;SDS011;36749;37.428;-121.972;2023-02-01T12:39:53;7.57;;;3.58;;
50781;SDS011;36749;37.428;-121.972;2023-02-01T12:45:26;9.15;;;3.70;;
50781;SDS011;36749;37.428;-121.972;2023-02-01T12:47:59;11.15;;;4.38;;
50781;SDS011;36749;37.428;-121.972;2023-02-01T12:50:40;11.10;;;4.20;;
50781;SDS011;36749;37.428;-121.972;2023-02-01T12:53:15;9.00;;;4.15;;
50781;SDS011;36749;37.428;-121.972;2023-02-01T12:55:54;10.82;;;4.35;;
50781;SDS011;36749;37.428;-121.972;2023-02-01T12:58:33;10.90;;;4.50;;
50781;SDS011;36749;37.428;-121.972;2023-02-01T13:01:12;10.85;;;4.93;;
50781;SDS011;36749;37.428;-121.972;2023-02-01T13:04:10;10.95;;;4.43;;
50781;SDS011;36749;37.428;-121.972;2023-02-01T13:09:31;11.98;;;4.70;;
50781;SDS011;36749;37.428;-121.972;2023-02-01T13:15:10;11.68;;;4.80;;
50781;SDS011;36749;37.428;-121.972;2023-02-01T13:17:41;9.13;;;4.57;;
50781;SDS011;36749;37.428;-121.972;2023-02-01T13:22:43;9.77;;;4.43;;
50781;SDS011;36749;37.428;-121.972;2023-02-01T13:25:40;9.55;;;4.80;;
50781;SDS011;36749;37.428;-121.972;2023-02-01T13:28:19;12.00;;;5.35;;
50781;SDS011;36749;37.428;-121.972;2023-02-01T13:33:50;19.10;;;4.63;;
50781;SDS011;36749;37.428;-121.972;2023-02-01T13:42:25;7.63;;;4.22;;
50781;SDS011;36749;37.428;-121.972;2023-02-01T13:44:57;12.10;;;5.28;;
50781;SDS011;36749;37.428;-121.972;2023-02-01T13:47:30;12.85;;;5.95;;
50781;SDS011;36749;37.428;-121.972;2023-02-01T13:50:02;12.18;;;4.45;;
50781;SDS011;36749;37.428;-121.972;2023-02-01T13:52:45;9.38;;;4.75;;
50781;SDS011;36749;37.428;-121.972;2023-02-01T13:57:48;11.13;;;5.10;;
50781;SDS011;36749;37.428;-121.972;2023-02-01T14:00:23;12.27;;;5.13;;
50781;SDS011;36749;37.428;-121.972;2023-02-01T14:08:09;11.18;;;4.57;;
50781;SDS011;36749;37.428;-121.972;2023-02-01T14:26:25;11.93;;;4.97;;
50781;SDS011;36749;37.428;-121.972;2023-02-01T14:28:56;10.77;;;5.15;;
50781;SDS011;36749;37.428;-121.972;2023-02-01T14:34:01;12.50;;;4.90;;
50781;SDS011;36749;37.428;-121.972;2023-02-01T14:36:53;12.02;;;5.07;;
50781;SDS011;36749;37.428;-121.972;2023-02-01T14:39:32;13.63;;;5.47;;
50781;SDS011;36749;37.428;-121.972;2023-02-01T14:47:53;16.48;;;5.93;;
50781;SDS011;36749;37.428;-121.972;2023-02-01T14:53:15;12.82;;;6.03;;
50781;SDS011;36749;37.428;-121.972;2023-02-01T14:55:50;13.13;;;5.68;;
50781;SDS011;36749;37.428;-121.972;2023-02-01T15:01:46;12.65;;;6.93;;
50781;SDS011;36749;37.428;-121.972;2023-02-01T15:04:13;10.05;;;5.65;;
50781;SDS011;36749;37.428;-121.972;2023-02-01T15:06:53;15.10;;;6.10;;
50781;SDS011;36749;37.428;-121.972;2023-02-01T15:11:56;12.50;;;5.60;;
50781;SDS011;36749;37.428;-121.972;2023-02-01T15:15:03;9.13;;;5.65;;
50781;SDS011;36749;37.428;-121.972;2023-02-01T15:17:50;12.68;;;6.00;;
50781;SDS011;36749;37.428;-121.972;2023-02-01T15:20:23;10.75;;;4.68;;
50781;SDS011;36749;37.428;-121.972;2023-02-01T15:22:53;14.43;;;6.25;;
50781;SDS011;36749;37.428;-121.972;2023-02-01T15:27:58;13.93;;;5.43;;
50781;SDS011;36749;37.428;-121.972;2023-02-01T15:30:26;11.95;;;6.15;;
50781;SDS011;36749;37.428;-121.972;2023-02-01T15:35:51;11.57;;;6.45;;
50781;SDS011;36749;37.428;-121.972;2023-02-01T15:38:19;12.40;;;5.50;;
50781;SDS011;36749;37.428;-121.972;2023-02-01T15:40:56;14.10;;;5.13;;
50781;SDS011;36749;37.428;-121.972;2023-02-01T15:43:25;16.45;;;6.72;;
50781;SDS011;36749;37.428;-121.972;2023-02-01T15:45:52;19.23;;;6.43;;
50781;SDS011;36749;37.428;-121.972;2023-02-01T15:48:23;12.98;;;5.70;;
50781;SDS011;36749;37.428;-121.972;2023-02-01T15:50:51;18.70;;;5.65;;
50781;SDS011;36749;37.428;-121.972;2023-02-01T15:53:21;13.23;;;5.38;;
50781;SDS011;36749;37.428;-121.972;2023-02-01T15:55:53;12.35;;;5.75;;
50781;SDS011;36749;37.428;-121.972;2023-02-01T15:58:21;11.18;;;4.90;;
50781;SDS011;36749;37.428;-121.972;2023-02-01T16:00:58;12.77;;;4.85;;
50781;SDS011;36749;37.428;-121.972;2023-02-01T16:03:37;12.02;;;5.22;;
50781;SDS011;36749;37.428;-121.972;2023-02-01T16:09:21;12.63;;;5.43;;
50781;SDS011;36749;37.428;-121.972;2023-02-01T16:11:41;13.27;;;4.95;;
50781;SDS011;36749;37.428;-121.972;2023-02-01T16:14:28;25.33;;;7.30;;
50781;SDS011;36749;37.428;-121.972;2023-02-01T16:16:56;35.60;;;8.30;;
50781;SDS011;36749;37.428;-121.972;2023-02-01T16:19:24;181.80;;;34.75;;
50781;SDS011;36749;37.428;-121.972;2023-02-01T16:21:56;301.17;;;57.55;;
50781;SDS011;36749;37.428;-121.972;2023-02-01T16:24:23;190.20;;;33.67;;
50781;SDS011;36749;37.428;-121.972;2023-02-01T16:26:51;169.95;;;32.53;;
50781;SDS011;36749;37.428;-121.972;2023-02-01T16:29:17;69.00;;;14.40;;
50781;SDS011;36749;37.428;-121.972;2023-02-01T16:31:43;57.45;;;14.77;;
50781;SDS011;36749;37.428;-121.972;2023-02-01T16:34:13;53.22;;;13.10;;
50781;SDS011;36749;37.428;-121.972;2023-02-01T16:36:42;36.47;;;8.70;;
50781;SDS011;36749;37.428;-121.972;2023-02-01T16:39:12;29.80;;;7.53;;
50781;SDS011;36749;37.428;-121.972;2023-02-01T16:41:39;18.25;;;5.90;;
50781;SDS011;36749;37.428;-121.972;2023-02-01T16:44:10;15.90;;;5.30;;
50781;SDS011;36749;37.428;-121.972;2023-02-01T16:46:41;13.65;;;4.43;;
50781;SDS011;36749;37.428;-121.972;2023-02-01T16:49:20;14.52;;;4.97;;
50781;SDS011;36749;37.428;-121.972;2023-02-01T16:51:49;9.82;;;4.30;;
50781;SDS011;36749;37.428;-121.972;2023-02-01T16:54:18;13.15;;;4.80;;
50781;SDS011;36749;37.428;-121.972;2023-02-01T16:56:48;15.75;;;5.13;;
50781;SDS011;36749;37.428;-121.972;2023-02-01T16:59:14;9.02;;;4.20;;
50781;SDS011;36749;37.428;-121.972;2023-02-01T17:01:41;12.40;;;4.78;;
50781;SDS011;36749;37.428;-121.972;2023-02-01T17:04:10;12.93;;;5.10;;
50781;SDS011;36749;37.428;-121.972;2023-02-01T17:06:37;11.63;;;5.10;;
50781;SDS011;36749;37.428;-121.972;2023-02-01T17:09:04;11.65;;;4.47;;
50781;SDS011;36749;37.428;-121.972;2023-02-01T17:11:54;12.98;;;4.97;;
50781;SDS011;36749;37.428;-121.972;2023-02-01T17:14:20;12.60;;;4.75;;
50781;SDS011;36749;37.428;-121.972;2023-02-01T17:16:50;10.50;;;4.65;;
50781;SDS011;36749;37.428;-121.972;2023-02-01T17:19:17;9.98;;;4.32;;
50781;SDS011;36749;37.428;-121.972;2023-02-01T17:21:48;9.18;;;3.90;;
50781;SDS011;36749;37.428;-121.972;2023-02-01T17:24:17;10.20;;;4.35;;
50781;SDS011;36749;37.428;-121.972;2023-02-01T17:26:45;8.95;;;3.88;;
50781;SDS011;36749;37.428;-121.972;2023-02-01T17:29:12;13.82;;;4.90;;
50781;SDS011;36749;37.428;-121.972;2023-02-01T17:31:39;18.60;;;5.10;;